Time;durP1;ratioP1;P1;durP2;ratioP2;P2;SDS_P1;SDS_P2;PMS_P1;PMS_P2;Temp;Humidity;BMP_temperature;BMP_pressure;BME280_temperature;BME280_humidity;BME280_pressure;Samples;Min_cycle;Max_cycle;Signal;HPM_P1;HPM_P2
2023/09/02 00:02:13;;;;;;;37.70;28.40;;;;;;;;;;5018330;28;20416;-59
2023/09/02 00:04:38;;;;;;;36.20;27.97;;;;;;;;;;5025214;28;20415;-59
2023/09/02 00:07:03;;;;;;;34.30;27.40;;;;;;;;;;5024619;28;20433;-59
2023/09/02 00:09:28;;;;;;;32.27;25.97;;;;;;;;;;5020243;28;20407;-59
2023/09/02 00:11:54;;;;;;;28.50;24.90;;;;;;;;;;5024167;28;20418;-59
2023/09/02 00:14:19;;;;;;;32.37;25.43;;;;;;;;;;5023279;28;20411;-59
2023/09/02 00:16:44;;;;;;;32.03;26.47;;;;;;;;;;5022054;28;20404;-59
2023/09/02 00:19:10;;;;;;;39.55;28.38;;;;;;;;;;5031113;28;21017;-59
2023/09/02 00:21:35;;;;;;;33.10;26.65;;;;;;;;;;5045040;28;20575;-59
2023/09/02 00:24:01;;;;;;;35.77;26.97;;;;;;;;;;5043112;28;21029;-60
2023/09/02 00:26:26;;;;;;;32.45;26.38;;;;;;;;;;5039593;28;20855;-59
2023/09/02 00:28:52;;;;;;;30.33;24.73;;;;;;;;;;5044476;28;20493;-59
2023/09/02 00:31:17;;;;;;;27.40;23.60;;;;;;;;;;5043126;28;20409;-59
2023/09/02 00:33:42;;;;;;;29.73;24.47;;;;;;;;;;5040939;28;20405;-59
2023/09/02 00:36:07;;;;;;;26.83;23.17;;;;;;;;;;5042545;28;20407;-59
2023/09/02 00:38:33;;;;;;;29.97;24.77;;;;;;;;;;5035677;28;20405;-59
2023/09/02 00:41:00;;;;;;;33.37;25.07;;;;;;;;;;5034669;28;20547;-59
2023/09/02 00:43:26;;;;;;;33.53;26.45;;;;;;;;;;5030686;28;20397;-59
2023/09/02 00:45:51;;;;;;;31.63;25.27;;;;;;;;;;5030389;28;20486;-59
2023/09/02 00:48:16;;;;;;;32.37;25.00;;;;;;;;;;5026003;28;20498;-59
2023/09/02 00:50:41;;;;;;;35.03;24.87;;;;;;;;;;5025234;28;20415;-59
2023/09/02 00:53:07;;;;;;;32.43;25.20;;;;;;;;;;5023086;28;20499;-59
2023/09/02 00:55:32;;;;;;;29.48;23.90;;;;;;;;;;5023914;28;20415;-59
2023/09/02 00:57:59;;;;;;;26.40;21.70;;;;;;;;;;5020466;28;20395;-59
2023/09/02 01:00:24;;;;;;;28.63;23.42;;;;;;;;;;5023882;28;20398;-59
2023/09/02 01:02:49;;;;;;;27.20;22.63;;;;;;;;;;5032583;28;20403;-59
2023/09/02 01:05:15;;;;;;;28.70;22.13;;;;;;;;;;5032554;28;20403;-59
2023/09/02 01:07:40;;;;;;;25.93;21.40;;;;;;;;;;5024271;28;20448;-59
2023/09/02 01:10:06;;;;;;;25.80;21.50;;;;;;;;;;5022460;28;20976;-59
2023/09/02 01:12:31;;;;;;;29.52;22.13;;;;;;;;;;5023497;28;20394;-59
2023/09/02 01:14:57;;;;;;;28.13;22.77;;;;;;;;;;5018564;28;20421;-59
2023/09/02 01:17:22;;;;;;;29.25;23.65;;;;;;;;;;5022956;28;20435;-59
2023/09/02 01:19:48;;;;;;;24.47;20.60;;;;;;;;;;5023091;28;20412;-59
2023/09/02 01:22:14;;;;;;;28.80;22.73;;;;;;;;;;5019219;28;20411;-59
2023/09/02 01:24:40;;;;;;;25.55;21.40;;;;;;;;;;5026649;28;20423;-59
2023/09/02 01:27:13;;;;;;;25.38;20.60;;;;;;;;;;5033196;28;20798;-59
2023/09/02 01:29:41;;;;;;;26.08;21.25;;;;;;;;;;5024923;28;20408;-59
2023/09/02 01:32:06;;;;;;;25.63;21.10;;;;;;;;;;5016229;28;20909;-59
2023/09/02 01:34:34;;;;;;;27.07;21.93;;;;;;;;;;5021471;28;20429;-59
2023/09/02 01:36:59;;;;;;;28.77;21.97;;;;;;;;;;5023732;28;20407;-59
2023/09/02 01:39:24;;;;;;;24.97;20.93;;;;;;;;;;5027282;28;20878;-59
2023/09/02 01:41:50;;;;;;;27.58;21.88;;;;;;;;;;5025493;28;20548;-59
2023/09/02 01:44:15;;;;;;;26.57;20.80;;;;;;;;;;5020529;28;20905;-59
2023/09/02 01:46:40;;;;;;;25.70;20.77;;;;;;;;;;5014783;28;20405;-59
2023/09/02 01:49:06;;;;;;;24.07;20.20;;;;;;;;;;5020400;28;20826;-59
2023/09/02 01:51:31;;;;;;;26.40;20.27;;;;;;;;;;5024646;28;20443;-59
2023/09/02 01:53:56;;;;;;;25.97;21.03;;;;;;;;;;5031748;28;20413;-59
2023/09/02 01:56:22;;;;;;;24.00;19.85;;;;;;;;;;5030953;28;20939;-59
2023/09/02 01:58:49;;;;;;;27.77;21.02;;;;;;;;;;5021132;28;20534;-59
2023/09/02 02:01:14;;;;;;;32.13;21.75;;;;;;;;;;5024350;28;20442;-59
2023/09/02 02:03:48;;;;;;;30.45;22.23;;;;;;;;;;5027264;28;20772;-59
2023/09/02 02:06:13;;;;;;;26.50;21.00;;;;;;;;;;5017782;28;20874;-59
2023/09/02 02:08:43;;;;;;;29.40;21.17;;;;;;;;;;5022723;28;20402;-59
2023/09/02 02:11:08;;;;;;;29.73;21.15;;;;;;;;;;5022787;28;20932;-59
2023/09/02 02:13:33;;;;;;;27.33;20.17;;;;;;;;;;5019417;28;20403;-59
2023/09/02 02:15:59;;;;;;;21.17;17.50;;;;;;;;;;5018712;28;20486;-59
2023/09/02 02:18:24;;;;;;;25.20;20.73;;;;;;;;;;5022627;28;20813;-59
2023/09/02 02:20:53;;;;;;;24.07;19.90;;;;;;;;;;5022417;28;20402;-59
2023/09/02 02:23:18;;;;;;;26.10;20.23;;;;;;;;;;5016235;28;20438;-59
2023/09/02 02:25:43;;;;;;;25.80;20.40;;;;;;;;;;5023019;28;20936;-59
2023/09/02 02:28:09;;;;;;;29.65;21.48;;;;;;;;;;5022530;28;20486;-59
2023/09/02 02:30:34;;;;;;;30.83;21.75;;;;;;;;;;5017886;28;20757;-59
2023/09/02 02:32:59;;;;;;;25.70;19.57;;;;;;;;;;5022032;28;20399;-59
2023/09/02 02:35:29;;;;;;;29.93;21.27;;;;;;;;;;5022724;28;20912;-59
2023/09/02 02:37:55;;;;;;;30.13;21.02;;;;;;;;;;5019956;28;20410;-59
2023/09/02 02:40:22;;;;;;;24.93;18.60;;;;;;;;;;5019259;28;20404;-59
2023/09/02 02:42:47;;;;;;;27.42;20.30;;;;;;;;;;5021978;28;20399;-59
2023/09/02 02:45:12;;;;;;;25.13;19.52;;;;;;;;;;5014306;28;20494;-59
2023/09/02 02:47:38;;;;;;;27.52;20.35;;;;;;;;;;5017364;28;20396;-59
2023/09/02 02:50:03;;;;;;;29.67;21.40;;;;;;;;;;5023031;28;21536;-60
2023/09/02 02:52:28;;;;;;;27.10;20.37;;;;;;;;;;5033910;28;20892;-59
2023/09/02 02:54:54;;;;;;;29.73;21.70;;;;;;;;;;5031171;28;20496;-59
2023/09/02 02:57:19;;;;;;;27.50;21.37;;;;;;;;;;5029867;28;20463;-59
2023/09/02 02:59:44;;;;;;;29.17;21.00;;;;;;;;;;5021831;28;21117;-59
2023/09/02 03:02:10;;;;;;;31.27;21.13;;;;;;;;;;5021271;28;20407;-59
2023/09/02 03:04:35;;;;;;;26.47;19.60;;;;;;;;;;5018764;28;20419;-59
2023/09/02 03:07:00;;;;;;;29.50;20.23;;;;;;;;;;5021536;28;20434;-60
2023/09/02 03:09:25;;;;;;;33.23;21.07;;;;;;;;;;5024040;28;20479;-59
2023/09/02 03:11:51;;;;;;;26.67;19.47;;;;;;;;;;5029732;28;20470;-59
2023/09/02 03:14:16;;;;;;;27.17;18.97;;;;;;;;;;5035790;28;20422;-59
2023/09/02 03:16:41;;;;;;;26.47;19.83;;;;;;;;;;5026767;28;20816;-59
2023/09/02 03:19:06;;;;;;;31.50;21.37;;;;;;;;;;5026680;28;20410;-59
2023/09/02 03:21:32;;;;;;;28.17;20.43;;;;;;;;;;5035371;28;20407;-59
2023/09/02 03:23:57;;;;;;;26.17;19.70;;;;;;;;;;5029438;28;20411;-59
2023/09/02 03:26:24;;;;;;;25.55;19.27;;;;;;;;;;5035985;28;20413;-59
2023/09/02 03:28:50;;;;;;;27.42;20.00;;;;;;;;;;5036572;28;20949;-59
2023/09/02 03:31:15;;;;;;;30.37;19.93;;;;;;;;;;5033345;28;20419;-59
2023/09/02 03:33:40;;;;;;;26.53;18.97;;;;;;;;;;5034898;28;20756;-59
2023/09/02 03:36:06;;;;;;;27.67;20.37;;;;;;;;;;5037020;28;20405;-59
2023/09/02 03:38:31;;;;;;;28.93;19.70;;;;;;;;;;5036016;28;20401;-59
2023/09/02 03:40:57;;;;;;;25.20;18.50;;;;;;;;;;5033545;28;20403;-59
2023/09/02 03:43:22;;;;;;;27.13;20.27;;;;;;;;;;5036651;28;20401;-59
2023/09/02 03:45:49;;;;;;;26.83;19.67;;;;;;;;;;5030753;28;20453;-59
2023/09/02 03:48:18;;;;;;;28.30;20.60;;;;;;;;;;5029849;28;20413;-59
2023/09/02 03:51:00;;;;;;;29.55;21.05;;;;;;;;;;5036423;28;20424;-59
2023/09/02 03:53:25;;;;;;;27.52;20.05;;;;;;;;;;5036365;28;20389;-59
2023/09/02 03:55:50;;;;;;;28.47;20.80;;;;;;;;;;5028444;28;20399;-59
2023/09/02 03:58:16;;;;;;;29.60;20.53;;;;;;;;;;5021128;28;20438;-59
2023/09/02 04:00:41;;;;;;;28.57;21.47;;;;;;;;;;5024998;28;20917;-59
2023/09/02 04:03:08;;;;;;;30.80;22.10;;;;;;;;;;5023450;28;22324;-59
2023/09/02 04:05:33;;;;;;;27.57;19.77;;;;;;;;;;5028601;28;20464;-59
2023/09/02 04:07:58;;;;;;;25.63;19.33;;;;;;;;;;5033078;28;20813;-59
2023/09/02 04:10:24;;;;;;;30.50;22.00;;;;;;;;;;5035508;28;20395;-59
2023/09/02 04:12:49;;;;;;;28.90;20.80;;;;;;;;;;5034552;28;20815;-59
2023/09/02 04:15:14;;;;;;;33.27;22.43;;;;;;;;;;5030983;28;20404;-59
2023/09/02 04:17:40;;;;;;;38.60;24.50;;;;;;;;;;5032909;28;20963;-59
2023/09/02 04:20:05;;;;;;;34.70;23.47;;;;;;;;;;5032509;28;20972;-59
2023/09/02 04:22:31;;;;;;;34.05;22.65;;;;;;;;;;5031463;28;20399;-59
2023/09/02 04:24:56;;;;;;;34.35;22.98;;;;;;;;;;5036763;28;20473;-59
2023/09/02 04:27:22;;;;;;;36.33;23.87;;;;;;;;;;5023884;28;20389;-59
2023/09/02 04:29:47;;;;;;;35.97;23.75;;;;;;;;;;5019637;28;20921;-59
2023/09/02 04:32:12;;;;;;;35.85;23.27;;;;;;;;;;5023259;28;20495;-59
2023/09/02 04:34:38;;;;;;;38.70;24.03;;;;;;;;;;5024704;28;21646;-59
2023/09/02 04:37:04;;;;;;;42.00;24.88;;;;;;;;;;5021286;28;20407;-59
2023/09/02 04:39:29;;;;;;;49.53;24.92;;;;;;;;;;5021914;28;20409;-59
2023/09/02 04:41:54;;;;;;;44.40;25.85;;;;;;;;;;5024832;28;20564;-59
2023/09/02 04:44:20;;;;;;;46.20;26.87;;;;;;;;;;5030505;28;20448;-59
2023/09/02 04:46:45;;;;;;;50.63;27.73;;;;;;;;;;5027190;28;21056;-59
2023/09/02 04:49:10;;;;;;;62.03;29.73;;;;;;;;;;5033450;28;20499;-59
2023/09/02 04:51:35;;;;;;;74.63;30.43;;;;;;;;;;5035371;28;20409;-59
2023/09/02 04:54:01;;;;;;;52.43;28.10;;;;;;;;;;5031757;28;20455;-60
2023/09/02 04:56:26;;;;;;;52.10;27.70;;;;;;;;;;5034684;28;20998;-59
2023/09/02 04:58:52;;;;;;;51.17;27.50;;;;;;;;;;5036382;28;20396;-59
2023/09/02 05:01:18;;;;;;;53.15;27.85;;;;;;;;;;5031598;28;20897;-59
2023/09/02 05:03:43;;;;;;;61.85;30.27;;;;;;;;;;5032041;28;20401;-59
2023/09/02 05:06:10;;;;;;;132.73;36.70;;;;;;;;;;5032369;28;20405;-59
2023/09/02 05:08:35;;;;;;;74.93;32.92;;;;;;;;;;5024284;28;20395;-59
2023/09/02 05:11:03;;;;;;;52.13;27.43;;;;;;;;;;5018352;28;21549;-60
2023/09/02 05:13:28;;;;;;;52.25;27.67;;;;;;;;;;5022888;28;20477;-59
2023/09/02 05:15:53;;;;;;;79.33;31.77;;;;;;;;;;5016807;28;20410;-59
2023/09/02 05:18:19;;;;;;;53.43;28.77;;;;;;;;;;5028677;28;20987;-59
2023/09/02 05:20:44;;;;;;;57.23;28.63;;;;;;;;;;5034826;28;20402;-59
2023/09/02 05:23:09;;;;;;;63.75;30.13;;;;;;;;;;5033686;28;20885;-59
2023/09/02 05:25:34;;;;;;;57.85;29.85;;;;;;;;;;5030376;28;20404;-59
2023/09/02 05:28:00;;;;;;;61.10;30.83;;;;;;;;;;5035850;28;20417;-59
2023/09/02 05:30:25;;;;;;;81.70;33.10;;;;;;;;;;5023386;28;20462;-59
2023/09/02 05:32:50;;;;;;;70.77;31.03;;;;;;;;;;5022433;28;20407;-59
2023/09/02 05:35:16;;;;;;;94.17;35.27;;;;;;;;;;5018236;28;20403;-59
2023/09/02 05:37:41;;;;;;;81.27;33.10;;;;;;;;;;5023043;28;20411;-59
2023/09/02 05:40:07;;;;;;;84.77;33.70;;;;;;;;;;5022574;28;20903;-59
2023/09/02 05:42:33;;;;;;;74.10;30.70;;;;;;;;;;5021108;28;20488;-59
2023/09/02 05:44:58;;;;;;;59.20;29.40;;;;;;;;;;5024945;28;20441;-60
2023/09/02 05:47:24;;;;;;;74.35;30.70;;;;;;;;;;5030604;28;20492;-59
2023/09/02 05:49:49;;;;;;;91.53;33.90;;;;;;;;;;5030836;28;20402;-59
2023/09/02 05:52:15;;;;;;;67.63;30.10;;;;;;;;;;5028379;28;20521;-59
2023/09/02 05:54:40;;;;;;;60.17;29.17;;;;;;;;;;5034274;28;20416;-59
2023/09/02 05:57:05;;;;;;;47.03;25.60;;;;;;;;;;5024106;28;20893;-59
2023/09/02 05:59:31;;;;;;;43.10;24.07;;;;;;;;;;5026740;28;20419;-59
2023/09/02 06:01:56;;;;;;;36.27;23.73;;;;;;;;;;5021471;28;20427;-59
2023/09/02 06:04:22;;;;;;;88.67;31.00;;;;;;;;;;5022917;28;21671;-59
2023/09/02 06:06:47;;;;;;;44.43;24.87;;;;;;;;;;5020893;28;20777;-59
2023/09/02 06:09:12;;;;;;;38.33;23.35;;;;;;;;;;5027430;28;20719;-59
2023/09/02 06:11:37;;;;;;;43.85;24.05;;;;;;;;;;5031689;28;20523;-59
2023/09/02 06:14:03;;;;;;;68.37;27.90;;;;;;;;;;5030759;28;20920;-59
2023/09/02 06:16:28;;;;;;;67.40;28.23;;;;;;;;;;5028078;28;20410;-59
2023/09/02 06:18:53;;;;;;;88.20;31.63;;;;;;;;;;5034764;28;20539;-59
2023/09/02 06:21:19;;;;;;;61.87;27.83;;;;;;;;;;5031713;28;20543;-59
2023/09/02 06:23:44;;;;;;;52.10;26.17;;;;;;;;;;5026737;28;20435;-59
2023/09/02 06:26:09;;;;;;;81.97;30.77;;;;;;;;;;5029387;28;20961;-59
2023/09/02 06:28:35;;;;;;;83.57;31.67;;;;;;;;;;5022327;28;20414;-59
2023/09/02 06:31:04;;;;;;;159.40;37.60;;;;;;;;;;5019386;28;20987;-60
2023/09/02 06:33:29;;;;;;;134.17;35.70;;;;;;;;;;5019301;28;20395;-59
2023/09/02 06:35:54;;;;;;;89.73;29.73;;;;;;;;;;5021839;28;20901;-59
2023/09/02 06:38:20;;;;;;;119.05;35.63;;;;;;;;;;5022171;28;20390;-59
2023/09/02 06:40:45;;;;;;;67.95;29.58;;;;;;;;;;5017960;28;20422;-59
2023/09/02 06:43:11;;;;;;;57.67;26.03;;;;;;;;;;5020070;28;21000;-59
2023/09/02 06:45:36;;;;;;;64.63;27.67;;;;;;;;;;5018917;28;20429;-59
2023/09/02 06:48:01;;;;;;;79.60;30.03;;;;;;;;;;5022280;28;20987;-59
2023/09/02 06:50:27;;;;;;;62.63;27.37;;;;;;;;;;5027564;28;20397;-59
2023/09/02 06:52:52;;;;;;;67.03;28.13;;;;;;;;;;5038272;28;20417;-59
2023/09/02 06:55:17;;;;;;;56.67;26.30;;;;;;;;;;5034258;28;20405;-59
2023/09/02 06:57:43;;;;;;;63.47;26.83;;;;;;;;;;5030061;28;20410;-59
2023/09/02 07:00:09;;;;;;;62.73;26.93;;;;;;;;;;5025936;28;20922;-59
2023/09/02 07:02:34;;;;;;;67.80;27.95;;;;;;;;;;5026417;28;20905;-59
2023/09/02 07:05:00;;;;;;;60.80;25.63;;;;;;;;;;5021123;28;20411;-59
2023/09/02 07:07:25;;;;;;;63.47;26.50;;;;;;;;;;5029066;28;20411;-59
2023/09/02 07:09:50;;;;;;;50.17;24.40;;;;;;;;;;5037650;28;20741;-59
2023/09/02 07:12:16;;;;;;;56.00;24.10;;;;;;;;;;5032388;28;20424;-59
2023/09/02 07:14:41;;;;;;;50.80;23.60;;;;;;;;;;5031671;28;20412;-59
2023/09/02 07:17:06;;;;;;;52.93;24.67;;;;;;;;;;5023702;28;20785;-60
2023/09/02 07:19:32;;;;;;;55.38;24.23;;;;;;;;;;5025197;28;20935;-59
2023/09/02 07:21:57;;;;;;;41.93;21.77;;;;;;;;;;5021505;28;20418;-59
2023/09/02 07:24:22;;;;;;;30.50;18.67;;;;;;;;;;5025477;28;20909;-59
2023/09/02 07:26:48;;;;;;;37.90;19.60;;;;;;;;;;5024432;28;20474;-59
2023/09/02 07:29:13;;;;;;;34.83;17.73;;;;;;;;;;5021460;28;20448;-59
2023/09/02 07:31:38;;;;;;;34.10;18.30;;;;;;;;;;5024538;28;20480;-59
2023/09/02 07:34:04;;;;;;;29.43;15.70;;;;;;;;;;5024738;28;20410;-59
2023/09/02 07:36:29;;;;;;;22.53;14.37;;;;;;;;;;5023688;28;20862;-59
2023/09/02 07:38:54;;;;;;;26.67;15.13;;;;;;;;;;5022720;28;20422;-59
2023/09/02 07:41:20;;;;;;;26.50;15.27;;;;;;;;;;5024713;28;20407;-59
2023/09/02 07:43:45;;;;;;;23.73;14.20;;;;;;;;;;5025193;28;20476;-59
2023/09/02 07:46:10;;;;;;;22.03;13.77;;;;;;;;;;5020211;28;20945;-59
2023/09/02 07:48:36;;;;;;;27.87;15.63;;;;;;;;;;5025784;28;20400;-59
2023/09/02 07:51:01;;;;;;;34.23;17.13;;;;;;;;;;5025084;28;20465;-60
2023/09/02 07:53:26;;;;;;;30.27;16.43;;;;;;;;;;5021128;28;20411;-59
2023/09/02 07:55:52;;;;;;;30.17;16.27;;;;;;;;;;5022122;28;20407;-59
2023/09/02 07:58:17;;;;;;;33.60;16.50;;;;;;;;;;5024987;28;20454;-59
2023/09/02 08:00:42;;;;;;;26.57;15.33;;;;;;;;;;5022701;28;20422;-59
2023/09/02 08:03:08;;;;;;;34.57;17.27;;;;;;;;;;5030013;28;20505;-59
2023/09/02 08:05:36;;;;;;;35.65;17.10;;;;;;;;;;5030206;28;20408;-59
2023/09/02 08:08:01;;;;;;;28.52;16.73;;;;;;;;;;5019536;28;20406;-60
2023/09/02 08:10:26;;;;;;;27.20;15.40;;;;;;;;;;5023860;28;20407;-59
2023/09/02 08:12:52;;;;;;;25.50;15.17;;;;;;;;;;5025168;28;20431;-59
2023/09/02 08:15:17;;;;;;;22.70;14.63;;;;;;;;;;5021623;28;20411;-59
2023/09/02 08:17:43;;;;;;;22.67;14.40;;;;;;;;;;5022207;28;20412;-59
2023/09/02 08:20:08;;;;;;;18.80;13.60;;;;;;;;;;5024577;28;20399;-59
2023/09/02 08:22:34;;;;;;;18.80;13.73;;;;;;;;;;5024284;28;20402;-59
2023/09/02 08:24:59;;;;;;;21.85;13.95;;;;;;;;;;5027904;28;20405;-59
2023/09/02 08:27:24;;;;;;;18.90;13.97;;;;;;;;;;5032844;28;20425;-59
2023/09/02 08:29:50;;;;;;;24.43;15.67;;;;;;;;;;5025998;28;20413;-59
2023/09/02 08:32:15;;;;;;;25.47;16.10;;;;;;;;;;5021009;28;20986;-59
2023/09/02 08:34:40;;;;;;;29.73;17.03;;;;;;;;;;5023107;28;20459;-59
2023/09/02 08:37:05;;;;;;;23.63;16.27;;;;;;;;;;5022671;28;20415;-59
2023/09/02 08:39:31;;;;;;;26.07;16.53;;;;;;;;;;5023174;28;20403;-59
2023/09/02 08:41:56;;;;;;;24.73;16.67;;;;;;;;;;5028408;28;20413;-59
2023/09/02 08:44:22;;;;;;;24.43;15.60;;;;;;;;;;5021550;28;20505;-59
2023/09/02 08:46:47;;;;;;;26.13;16.13;;;;;;;;;;5036242;28;20402;-59
2023/09/02 08:49:14;;;;;;;24.10;14.93;;;;;;;;;;5028665;28;20467;-59
2023/09/02 08:51:39;;;;;;;23.10;15.60;;;;;;;;;;5031747;28;20979;-59
2023/09/02 08:54:05;;;;;;;23.75;15.50;;;;;;;;;;5032166;28;20462;-59
2023/09/02 08:56:30;;;;;;;26.00;15.70;;;;;;;;;;5032631;28;20401;-59
2023/09/02 08:58:55;;;;;;;21.37;15.33;;;;;;;;;;5033690;28;20492;-59
2023/09/02 09:01:21;;;;;;;21.87;14.87;;;;;;;;;;5032294;28;20474;-59
2023/09/02 09:03:49;;;;;;;18.60;14.23;;;;;;;;;;5030726;28;20878;-58
2023/09/02 09:06:14;;;;;;;21.30;15.07;;;;;;;;;;5017820;28;20760;-59
2023/09/02 09:08:39;;;;;;;22.23;14.97;;;;;;;;;;5024173;28;20991;-59
2023/09/02 09:11:05;;;;;;;22.87;15.70;;;;;;;;;;5022589;28;20411;-59
2023/09/02 09:13:31;;;;;;;21.60;14.82;;;;;;;;;;5019501;28;20933;-59
2023/09/02 09:15:56;;;;;;;21.27;14.57;;;;;;;;;;5026867;28;20398;-59
2023/09/02 09:18:21;;;;;;;21.90;14.90;;;;;;;;;;5029648;28;20525;-59
2023/09/02 09:20:46;;;;;;;21.87;14.60;;;;;;;;;;5019221;28;20935;-59
2023/09/02 09:23:12;;;;;;;25.40;16.10;;;;;;;;;;5025049;28;20417;-59
2023/09/02 09:25:37;;;;;;;24.53;16.27;;;;;;;;;;5026696;28;20458;-59
2023/09/02 09:28:06;;;;;;;22.97;16.00;;;;;;;;;;5027741;28;20403;-59
2023/09/02 09:30:31;;;;;;;23.60;16.10;;;;;;;;;;5021241;28;20407;-59
2023/09/02 09:32:58;;;;;;;20.23;15.33;;;;;;;;;;5021768;28;20440;-59
2023/09/02 09:35:23;;;;;;;21.02;15.85;;;;;;;;;;5034164;28;20397;-59
2023/09/02 09:37:52;;;;;;;23.60;16.73;;;;;;;;;;5033923;28;20757;-59
2023/09/02 09:40:23;;;;;;;21.65;15.52;;;;;;;;;;5028036;28;20869;-59
2023/09/02 09:42:48;;;;;;;20.02;15.05;;;;;;;;;;5028022;28;20399;-59
2023/09/02 09:45:13;;;;;;;19.03;14.37;;;;;;;;;;5026304;28;20906;-59
2023/09/02 09:47:39;;;;;;;21.30;15.33;;;;;;;;;;5026736;28;20407;-59
2023/09/02 09:50:12;;;;;;;21.10;15.18;;;;;;;;;;5022479;28;20479;-59
2023/09/02 09:52:37;;;;;;;20.85;15.85;;;;;;;;;;5023305;28;20411;-59
2023/09/02 09:55:03;;;;;;;20.17;14.70;;;;;;;;;;5018027;28;20433;-59
2023/09/02 09:57:29;;;;;;;21.07;15.13;;;;;;;;;;5019761;28;20403;-59
2023/09/02 09:59:54;;;;;;;20.42;14.73;;;;;;;;;;5014990;28;20862;-58
2023/09/02 10:02:20;;;;;;;20.23;14.57;;;;;;;;;;5025995;28;20404;-59
2023/09/02 10:04:53;;;;;;;21.38;14.70;;;;;;;;;;5029726;28;20476;-59
2023/09/02 10:07:21;;;;;;;20.15;15.32;;;;;;;;;;5030911;28;20899;-58
2023/09/02 10:09:46;;;;;;;18.55;14.05;;;;;;;;;;5022045;28;20403;-59
2023/09/02 10:12:13;;;;;;;18.30;13.97;;;;;;;;;;5020553;28;20415;-59
2023/09/02 10:14:42;;;;;;;21.15;14.43;;;;;;;;;;5019656;28;20399;-59
2023/09/02 10:17:08;;;;;;;20.85;15.07;;;;;;;;;;5023420;28;20457;-59
2023/09/02 10:19:34;;;;;;;17.90;14.13;;;;;;;;;;5037759;28;20405;-59
2023/09/02 10:21:59;;;;;;;19.60;14.45;;;;;;;;;;5033141;28;20482;-59
2023/09/02 10:24:24;;;;;;;18.90;14.10;;;;;;;;;;5035205;28;20833;-59
2023/09/02 10:26:51;;;;;;;19.57;13.90;;;;;;;;;;5026126;28;20407;-59
2023/09/02 10:29:17;;;;;;;20.80;13.88;;;;;;;;;;5021027;28;20422;-59
2023/09/02 10:31:46;;;;;;;18.07;13.20;;;;;;;;;;5024943;28;20945;-59
2023/09/02 10:34:19;;;;;;;17.30;13.32;;;;;;;;;;5026140;28;20397;-59
2023/09/02 10:36:44;;;;;;;18.63;13.70;;;;;;;;;;5024517;28;20494;-59
2023/09/02 10:39:13;;;;;;;18.13;13.65;;;;;;;;;;5031667;28;20535;-59
2023/09/02 10:41:38;;;;;;;17.50;12.85;;;;;;;;;;5029744;28;20479;-59
2023/09/02 10:44:03;;;;;;;18.33;13.27;;;;;;;;;;5024137;28;20789;-59
2023/09/02 10:46:29;;;;;;;16.07;12.20;;;;;;;;;;5020592;28;20403;-59
2023/09/02 10:48:54;;;;;;;17.83;12.40;;;;;;;;;;5025582;28;20403;-59
2023/09/02 10:51:19;;;;;;;17.30;12.17;;;;;;;;;;5022515;28;20411;-59
2023/09/02 10:53:50;;;;;;;16.70;13.02;;;;;;;;;;5022130;28;20410;-59
2023/09/02 10:56:23;;;;;;;16.57;12.23;;;;;;;;;;5016692;28;20476;-59
2023/09/02 10:58:48;;;;;;;15.45;11.27;;;;;;;;;;5034900;28;20407;-59
2023/09/02 11:01:14;;;;;;;14.87;11.50;;;;;;;;;;5033241;28;20411;-59
2023/09/02 11:03:41;;;;;;;16.43;11.40;;;;;;;;;;5030091;28;20410;-59
2023/09/02 11:06:06;;;;;;;15.48;11.75;;;;;;;;;;5026222;28;20455;-59
2023/09/02 11:08:40;;;;;;;13.52;10.90;;;;;;;;;;5025851;28;20422;-59
2023/09/02 11:11:05;;;;;;;16.40;11.27;;;;;;;;;;5020529;28;20431;-59
2023/09/02 11:13:30;;;;;;;14.10;11.00;;;;;;;;;;5026102;28;20429;-59
2023/09/02 11:16:14;;;;;;;13.77;10.67;;;;;;;;;;5026185;28;20406;-59
2023/09/02 11:18:40;;;;;;;14.60;10.90;;;;;;;;;;5028478;28;20386;-59
2023/09/02 11:21:05;;;;;;;15.85;12.88;;;;;;;;;;5033820;28;20411;-59
2023/09/02 11:23:32;;;;;;;16.30;12.47;;;;;;;;;;5034269;28;20408;-59
2023/09/02 11:26:00;;;;;;;14.13;11.73;;;;;;;;;;5033917;28;20952;-59
2023/09/02 11:28:25;;;;;;;14.57;11.23;;;;;;;;;;5031808;28;20488;-59
2023/09/02 11:31:02;;;;;;;16.08;11.98;;;;;;;;;;5024491;28;20543;-59
2023/09/02 11:33:27;;;;;;;15.52;11.95;;;;;;;;;;5024400;28;20885;-59
2023/09/02 11:35:53;;;;;;;18.70;14.00;;;;;;;;;;5022443;28;20394;-59
2023/09/02 11:38:19;;;;;;;19.67;14.37;;;;;;;;;;5022027;28;20402;-59
2023/09/02 11:40:45;;;;;;;19.10;14.65;;;;;;;;;;5034259;28;21178;-59
2023/09/02 11:43:16;;;;;;;18.92;14.30;;;;;;;;;;5029203;28;20416;-59
2023/09/02 11:45:41;;;;;;;17.60;13.30;;;;;;;;;;5025170;28;20421;-59
2023/09/02 11:48:07;;;;;;;16.50;12.40;;;;;;;;;;5036146;28;21046;-59
2023/09/02 11:50:32;;;;;;;18.40;12.63;;;;;;;;;;5033840;28;20405;-59
2023/09/02 11:52:58;;;;;;;16.07;12.63;;;;;;;;;;5030124;28;20415;-59
2023/09/02 11:55:23;;;;;;;15.40;12.60;;;;;;;;;;5034458;28;20399;-59
2023/09/02 11:57:48;;;;;;;15.47;12.37;;;;;;;;;;5030716;28;20916;-59
2023/09/02 12:00:14;;;;;;;16.07;12.50;;;;;;;;;;5022755;28;20423;-59
2023/09/02 12:02:40;;;;;;;17.08;12.70;;;;;;;;;;5021686;28;20457;-59
2023/09/02 12:05:05;;;;;;;18.80;13.53;;;;;;;;;;5025184;28;20913;-59
2023/09/02 12:07:32;;;;;;;17.73;13.40;;;;;;;;;;5024771;28;20465;-59
2023/09/02 12:10:03;;;;;;;17.17;13.18;;;;;;;;;;5020891;28;20425;-59
2023/09/02 12:12:28;;;;;;;16.75;13.35;;;;;;;;;;5027753;28;20421;-59
2023/09/02 12:14:53;;;;;;;15.07;11.93;;;;;;;;;;5035393;28;20872;-59
2023/09/02 12:17:19;;;;;;;15.30;11.40;;;;;;;;;;5021848;28;20403;-59
2023/09/02 12:19:44;;;;;;;15.50;11.70;;;;;;;;;;5020856;28;21131;-59
2023/09/02 12:22:09;;;;;;;16.63;12.10;;;;;;;;;;5024038;28;20437;-59
2023/09/02 12:24:34;;;;;;;13.83;11.10;;;;;;;;;;5024919;28;20399;-59
2023/09/02 12:27:00;;;;;;;15.47;12.13;;;;;;;;;;5028423;28;20421;-59
2023/09/02 12:29:25;;;;;;;16.43;11.77;;;;;;;;;;5031612;28;20886;-59
2023/09/02 12:31:55;;;;;;;15.80;11.77;;;;;;;;;;5024694;28;20415;-59
2023/09/02 12:34:21;;;;;;;14.63;11.48;;;;;;;;;;5020897;28;20382;-59
2023/09/02 12:36:47;;;;;;;14.00;10.88;;;;;;;;;;5022363;28;20504;-59
2023/09/02 12:39:24;;;;;;;14.70;10.83;;;;;;;;;;5026002;28;20557;-59
2023/09/02 12:41:50;;;;;;;16.23;11.60;;;;;;;;;;5033792;28;20408;-59
2023/09/02 12:44:16;;;;;;;13.55;11.20;;;;;;;;;;5028784;28;20409;-59
2023/09/02 12:46:41;;;;;;;12.65;10.27;;;;;;;;;;5024154;28;20497;-59
2023/09/02 12:49:07;;;;;;;12.75;10.25;;;;;;;;;;5032647;28;20427;-59
2023/09/02 12:51:36;;;;;;;15.77;11.50;;;;;;;;;;5026707;28;20916;-58
2023/09/02 12:54:06;;;;;;;14.50;11.88;;;;;;;;;;5022385;28;20419;-59
2023/09/02 12:56:31;;;;;;;15.90;12.47;;;;;;;;;;5022776;28;20486;-59
2023/09/02 12:58:57;;;;;;;15.23;12.77;;;;;;;;;;5031215;28;20528;-59
2023/09/02 13:01:22;;;;;;;14.43;11.03;;;;;;;;;;5028235;28;20870;-59
2023/09/02 13:03:47;;;;;;;14.53;11.47;;;;;;;;;;5023811;28;20416;-59
2023/09/02 13:06:12;;;;;;;14.27;11.37;;;;;;;;;;5024022;28;20765;-59
2023/09/02 13:08:41;;;;;;;14.90;11.00;;;;;;;;;;5019718;28;20407;-59
2023/09/02 13:11:06;;;;;;;13.40;10.95;;;;;;;;;;5022255;28;20455;-59
2023/09/02 13:13:31;;;;;;;14.47;10.57;;;;;;;;;;5022532;28;20430;-59
2023/09/02 13:15:58;;;;;;;12.67;10.27;;;;;;;;;;5020947;28;20403;-59
2023/09/02 13:18:25;;;;;;;12.40;9.80;;;;;;;;;;5031090;28;20389;-59
2023/09/02 13:20:50;;;;;;;13.02;10.07;;;;;;;;;;5035973;28;20411;-59
2023/09/02 13:23:16;;;;;;;12.30;10.27;;;;;;;;;;5023025;28;20407;-59
2023/09/02 13:25:41;;;;;;;14.37;10.73;;;;;;;;;;5018472;28;21081;-59
2023/09/02 13:28:06;;;;;;;13.77;10.77;;;;;;;;;;5023518;28;20427;-59
2023/09/02 13:30:31;;;;;;;13.27;10.33;;;;;;;;;;5022237;28;20410;-59
2023/09/02 13:32:57;;;;;;;11.97;10.13;;;;;;;;;;5004532;28;20833;-59
2023/09/02 13:35:23;;;;;;;11.90;8.17;;;;;;;;;;4986946;28;20414;-59
2023/09/02 13:37:49;;;;;;;12.30;9.45;;;;;;;;;;4990062;28;20399;-59
2023/09/02 13:40:14;;;;;;;12.20;10.17;;;;;;;;;;4989685;28;20394;-59
2023/09/02 13:42:40;;;;;;;12.20;10.40;;;;;;;;;;4997805;28;20490;-59
2023/09/02 13:45:19;;;;;;;12.10;9.90;;;;;;;;;;4991853;28;20815;-59
2023/09/02 13:47:45;;;;;;;13.52;10.32;;;;;;;;;;5001098;28;20422;-59
2023/09/02 13:50:11;;;;;;;12.65;10.15;;;;;;;;;;4997252;28;20929;-59
2023/09/02 13:52:36;;;;;;;13.10;9.88;;;;;;;;;;4993497;28;20411;-59
2023/09/02 13:55:02;;;;;;;12.67;9.43;;;;;;;;;;5001197;28;20805;-59
2023/09/02 13:57:27;;;;;;;11.50;9.00;;;;;;;;;;4991975;28;20406;-59
2023/09/02 13:59:54;;;;;;;10.50;9.10;;;;;;;;;;4985093;28;20399;-59
2023/09/02 14:02:19;;;;;;;12.10;9.20;;;;;;;;;;4986407;28;20750;-59
2023/09/02 14:04:45;;;;;;;12.13;8.90;;;;;;;;;;4989702;28;20760;-59
2023/09/02 14:07:11;;;;;;;11.27;9.50;;;;;;;;;;4996962;28;20421;-59
2023/09/02 14:09:38;;;;;;;10.43;8.30;;;;;;;;;;4993163;28;20411;-59